sensor_id;sensor_type;location;lat;lon;timestamp;pressure;altitude;pressure_sealevel;temperature;humidity
40171;BME280;37650;52.790;18.268;2023-02-10T00:03:44;101918.45;;;-2.60;82.34
40171;BME280;37650;52.790;18.268;2023-02-10T00:07:05;101916.09;;;-2.55;82.06
40171;BME280;37650;52.790;18.268;2023-02-10T00:10:25;101910.98;;;-2.49;82.19
40171;BME280;37650;52.790;18.268;2023-02-10T00:13:46;101918.58;;;-2.48;81.87
40171;BME280;37650;52.790;18.268;2023-02-10T00:17:07;101918.48;;;-2.46;82.13
40171;BME280;37650;52.790;18.268;2023-02-10T00:20:28;101915.36;;;-2.43;82.19
40171;BME280;37650;52.790;18.268;2023-02-10T00:23:49;101903.84;;;-2.43;82.00
40171;BME280;37650;52.790;18.268;2023-02-10T00:27:10;101898.44;;;-2.44;82.16
40171;BME280;37650;52.790;18.268;2023-02-10T00:30:31;101891.45;;;-2.43;82.18
40171;BME280;37650;52.790;18.268;2023-02-10T00:33:52;101888.63;;;-2.41;82.21
40171;BME280;37650;52.790;18.268;2023-02-10T00:37:13;101892.33;;;-2.38;82.05
40171;BME280;37650;52.790;18.268;2023-02-10T00:40:34;101896.56;;;-2.40;82.21
40171;BME280;37650;52.790;18.268;2023-02-10T00:43:55;101910.98;;;-2.41;82.45
40171;BME280;37650;52.790;18.268;2023-02-10T00:47:16;101912.83;;;-2.42;82.46
40171;BME280;37650;52.790;18.268;2023-02-10T00:50:37;101904.95;;;-2.45;82.26
40171;BME280;37650;52.790;18.268;2023-02-10T00:53:58;101906.11;;;-2.46;82.39
40171;BME280;37650;52.790;18.268;2023-02-10T00:57:19;101901.44;;;-2.47;82.65
40171;BME280;37650;52.790;18.268;2023-02-10T01:00:40;101902.48;;;-2.51;82.68
40171;BME280;37650;52.790;18.268;2023-02-10T01:04:02;101896.95;;;-2.56;82.60
40171;BME280;37650;52.790;18.268;2023-02-10T01:07:23;101894.50;;;-2.58;82.87
40171;BME280;37650;52.790;18.268;2023-02-10T01:10:45;101888.96;;;-2.58;82.82
40171;BME280;37650;52.790;18.268;2023-02-10T01:14:06;101891.27;;;-2.60;83.00
40171;BME280;37650;52.790;18.268;2023-02-10T01:17:27;101897.02;;;-2.63;83.00
40171;BME280;37650;52.790;18.268;2023-02-10T01:20:48;101900.64;;;-2.67;83.24
40171;BME280;37650;52.790;18.268;2023-02-10T01:24:09;101887.17;;;-2.69;83.29
40171;BME280;37650;52.790;18.268;2023-02-10T01:27:32;101885.87;;;-2.71;83.45
40171;BME280;37650;52.790;18.268;2023-02-10T01:30:53;101890.15;;;-2.71;83.70
40171;BME280;37650;52.790;18.268;2023-02-10T01:34:14;101885.95;;;-2.73;83.49
40171;BME280;37650;52.790;18.268;2023-02-10T01:37:35;101882.10;;;-2.75;83.72
40171;BME280;37650;52.790;18.268;2023-02-10T01:40:58;101875.27;;;-2.78;83.75
40171;BME280;37650;52.790;18.268;2023-02-10T01:47:42;101874.58;;;-2.82;84.02
40171;BME280;37650;52.790;18.268;2023-02-10T01:51:05;101882.13;;;-2.86;84.00
40171;BME280;37650;52.790;18.268;2023-02-10T01:54:32;101882.32;;;-2.90;84.18
40171;BME280;37650;52.790;18.268;2023-02-10T01:57:54;101879.58;;;-2.86;84.71
40171;BME280;37650;52.790;18.268;2023-02-10T02:01:16;101879.83;;;-2.80;84.71
40171;BME280;37650;52.790;18.268;2023-02-10T02:04:51;101871.38;;;-2.72;85.09
40171;BME280;37650;52.790;18.268;2023-02-10T02:08:18;101868.73;;;-2.61;85.29
40171;BME280;37650;52.790;18.268;2023-02-10T02:12:22;101864.41;;;-2.53;85.27
40171;BME280;37650;52.790;18.268;2023-02-10T02:16:08;101865.50;;;-2.43;85.51
40171;BME280;37650;52.790;18.268;2023-02-10T02:35:10;101892.45;;;-1.95;85.66
40171;BME280;37650;52.790;18.268;2023-02-10T02:38:40;101890.08;;;-1.89;85.84
40171;BME280;37650;52.790;18.268;2023-02-10T02:42:19;101885.97;;;-1.85;85.95
40171;BME280;37650;52.790;18.268;2023-02-10T02:45:50;101884.11;;;-1.79;86.26
40171;BME280;37650;52.790;18.268;2023-02-10T02:49:45;101885.80;;;-1.75;86.21
40171;BME280;37650;52.790;18.268;2023-02-10T02:53:33;101889.20;;;-1.67;86.42
40171;BME280;37650;52.790;18.268;2023-02-10T02:57:18;101894.95;;;-1.56;86.47
40171;BME280;37650;52.790;18.268;2023-02-10T03:00:43;101891.25;;;-1.49;86.44
40171;BME280;37650;52.790;18.268;2023-02-10T03:04:05;101895.53;;;-1.44;86.23
40171;BME280;37650;52.790;18.268;2023-02-10T03:07:27;101893.59;;;-1.41;86.28
40171;BME280;37650;52.790;18.268;2023-02-10T03:10:48;101888.83;;;-1.40;86.08
40171;BME280;37650;52.790;18.268;2023-02-10T03:14:09;101888.85;;;-1.39;86.32
40171;BME280;37650;52.790;18.268;2023-02-10T03:17:30;101899.71;;;-1.38;86.38
40171;BME280;37650;52.790;18.268;2023-02-10T03:20:50;101904.86;;;-1.38;86.48
40171;BME280;37650;52.790;18.268;2023-02-10T03:24:11;101908.63;;;-1.35;87.10
40171;BME280;37650;52.790;18.268;2023-02-10T03:27:32;101909.13;;;-1.30;87.10
40171;BME280;37650;52.790;18.268;2023-02-10T03:30:53;101909.02;;;-1.28;87.13
40171;BME280;37650;52.790;18.268;2023-02-10T03:34:15;101905.66;;;-1.25;87.04
40171;BME280;37650;52.790;18.268;2023-02-10T03:37:36;101907.62;;;-1.24;87.17
40171;BME280;37650;52.790;18.268;2023-02-10T03:40:57;101901.80;;;-1.23;87.43
40171;BME280;37650;52.790;18.268;2023-02-10T03:44:18;101897.28;;;-1.24;87.32
40171;BME280;37650;52.790;18.268;2023-02-10T03:47:38;101890.38;;;-1.24;87.51
40171;BME280;37650;52.790;18.268;2023-02-10T03:51:01;101892.30;;;-1.24;87.68
40171;BME280;37650;52.790;18.268;2023-02-10T03:54:22;101896.73;;;-1.25;87.79
40171;BME280;37650;52.790;18.268;2023-02-10T03:57:43;101903.86;;;-1.28;87.81
40171;BME280;37650;52.790;18.268;2023-02-10T04:01:10;101906.02;;;-1.36;87.83
40171;BME280;37650;52.790;18.268;2023-02-10T04:04:31;101904.17;;;-1.43;87.86
40171;BME280;37650;52.790;18.268;2023-02-10T04:07:52;101904.22;;;-1.52;87.72
40171;BME280;37650;52.790;18.268;2023-02-10T04:11:13;101905.70;;;-1.58;88.05
40171;BME280;37650;52.790;18.268;2023-02-10T04:14:34;101904.52;;;-1.62;88.24
40171;BME280;37650;52.790;18.268;2023-02-10T04:17:54;101903.16;;;-1.66;88.52
40171;BME280;37650;52.790;18.268;2023-02-10T04:21:17;101907.05;;;-1.73;88.50
40171;BME280;37650;52.790;18.268;2023-02-10T04:24:37;101913.71;;;-1.79;89.16
40171;BME280;37650;52.790;18.268;2023-02-10T04:27:58;101913.08;;;-1.86;89.22
40171;BME280;37650;52.790;18.268;2023-02-10T04:31:19;101909.73;;;-1.93;89.57
40171;BME280;37650;52.790;18.268;2023-02-10T04:34:40;101903.52;;;-1.98;90.14
40171;BME280;37650;52.790;18.268;2023-02-10T04:38:01;101904.04;;;-1.98;90.51
40171;BME280;37650;52.790;18.268;2023-02-10T04:41:23;101891.48;;;-1.98;90.79
40171;BME280;37650;52.790;18.268;2023-02-10T04:44:44;101884.79;;;-1.97;91.27
40171;BME280;37650;52.790;18.268;2023-02-10T04:48:05;101879.84;;;-1.96;92.56
40171;BME280;37650;52.790;18.268;2023-02-10T04:51:26;101870.57;;;-1.96;92.94
40171;BME280;37650;52.790;18.268;2023-02-10T04:54:47;101878.74;;;-1.94;93.45
40171;BME280;37650;52.790;18.268;2023-02-10T04:58:08;101882.95;;;-1.92;93.29
40171;BME280;37650;52.790;18.268;2023-02-10T05:01:29;101891.02;;;-1.92;92.89
40171;BME280;37650;52.790;18.268;2023-02-10T05:04:50;101896.15;;;-1.93;93.24
40171;BME280;37650;52.790;18.268;2023-02-10T05:08:11;101894.80;;;-1.92;93.27
40171;BME280;37650;52.790;18.268;2023-02-10T05:11:31;101890.36;;;-1.87;94.02
40171;BME280;37650;52.790;18.268;2023-02-10T05:14:53;101894.88;;;-1.81;94.14
40171;BME280;37650;52.790;18.268;2023-02-10T05:18:14;101887.83;;;-1.77;94.09
40171;BME280;37650;52.790;18.268;2023-02-10T05:21:36;101887.83;;;-1.76;93.51
40171;BME280;37650;52.790;18.268;2023-02-10T05:24:57;101884.34;;;-1.78;93.51
40171;BME280;37650;52.790;18.268;2023-02-10T05:28:19;101891.91;;;-1.78;93.85
40171;BME280;37650;52.790;18.268;2023-02-10T05:31:40;101892.80;;;-1.77;93.56
40171;BME280;37650;52.790;18.268;2023-02-10T05:35:02;101891.25;;;-1.77;93.59
40171;BME280;37650;52.790;18.268;2023-02-10T05:38:23;101892.45;;;-1.77;93.64
40171;BME280;37650;52.790;18.268;2023-02-10T05:41:47;101890.02;;;-1.77;94.26
40171;BME280;37650;52.790;18.268;2023-02-10T05:45:08;101896.92;;;-1.78;94.44
40171;BME280;37650;52.790;18.268;2023-02-10T05:48:29;101903.16;;;-1.76;94.21
40171;BME280;37650;52.790;18.268;2023-02-10T05:51:50;101902.58;;;-1.73;94.28
40171;BME280;37650;52.790;18.268;2023-02-10T05:55:11;101908.34;;;-1.71;94.55
40171;BME280;37650;52.790;18.268;2023-02-10T05:58:32;101918.84;;;-1.71;94.44
40171;BME280;37650;52.790;18.268;2023-02-10T06:01:53;101919.27;;;-1.68;94.71
40171;BME280;37650;52.790;18.268;2023-02-10T06:05:29;101921.54;;;-1.67;95.19
40171;BME280;37650;52.790;18.268;2023-02-10T06:08:50;101931.93;;;-1.65;95.19
40171;BME280;37650;52.790;18.268;2023-02-10T06:12:11;101936.76;;;-1.61;95.26
40171;BME280;37650;52.790;18.268;2023-02-10T06:15:31;101943.91;;;-1.54;95.39
40171;BME280;37650;52.790;18.268;2023-02-10T06:18:52;101956.23;;;-1.51;95.36
40171;BME280;37650;52.790;18.268;2023-02-10T06:22:13;101960.32;;;-1.47;95.58
40171;BME280;37650;52.790;18.268;2023-02-10T06:25:34;101964.81;;;-1.42;95.80
40171;BME280;37650;52.790;18.268;2023-02-10T06:28:57;101965.64;;;-1.38;96.11
40171;BME280;37650;52.790;18.268;2023-02-10T06:32:18;101960.15;;;-1.33;96.14
40171;BME280;37650;52.790;18.268;2023-02-10T06:35:39;101960.21;;;-1.27;95.94
40171;BME280;37650;52.790;18.268;2023-02-10T06:39:00;101958.70;;;-1.20;96.11
40171;BME280;37650;52.790;18.268;2023-02-10T06:42:21;101964.77;;;-1.14;95.87
40171;BME280;37650;52.790;18.268;2023-02-10T06:45:42;101971.20;;;-1.08;96.27
40171;BME280;37650;52.790;18.268;2023-02-10T06:49:03;101981.76;;;-1.02;96.46
40171;BME280;37650;52.790;18.268;2023-02-10T06:52:24;101978.91;;;-0.95;96.57
40171;BME280;37650;52.790;18.268;2023-02-10T06:55:47;101969.78;;;-0.85;96.58
40171;BME280;37650;52.790;18.268;2023-02-10T06:59:08;101965.08;;;-0.77;96.78
40171;BME280;37650;52.790;18.268;2023-02-10T07:02:29;101967.55;;;-0.70;96.95
40171;BME280;37650;52.790;18.268;2023-02-10T07:05:50;101973.34;;;-0.67;96.83
40171;BME280;37650;52.790;18.268;2023-02-10T07:09:11;101975.07;;;-0.61;97.10
40171;BME280;37650;52.790;18.268;2023-02-10T07:12:32;101973.40;;;-0.55;97.22
40171;BME280;37650;52.790;18.268;2023-02-10T07:15:53;101974.63;;;-0.50;97.12
40171;BME280;37650;52.790;18.268;2023-02-10T07:19:14;101974.71;;;-0.47;96.89
40171;BME280;37650;52.790;18.268;2023-02-10T07:22:35;101974.47;;;-0.44;97.32
40171;BME280;37650;52.790;18.268;2023-02-10T07:25:56;101968.37;;;-0.40;97.08
40171;BME280;37650;52.790;18.268;2023-02-10T07:29:17;101972.33;;;-0.35;97.54
40171;BME280;37650;52.790;18.268;2023-02-10T07:32:39;101973.45;;;-0.33;97.78
40171;BME280;37650;52.790;18.268;2023-02-10T07:36:06;101975.15;;;-0.28;97.84
40171;BME280;37650;52.790;18.268;2023-02-10T07:39:27;101981.44;;;-0.25;97.67
40171;BME280;37650;52.790;18.268;2023-02-10T07:42:48;101987.70;;;-0.24;98.06
40171;BME280;37650;52.790;18.268;2023-02-10T07:46:43;101989.43;;;-0.23;98.09
40171;BME280;37650;52.790;18.268;2023-02-10T07:50:05;101985.83;;;-0.23;98.61
40171;BME280;37650;52.790;18.268;2023-02-10T07:53:25;101982.95;;;-0.21;98.75
40171;BME280;37650;52.790;18.268;2023-02-10T07:56:45;101975.73;;;-0.20;98.87
40171;BME280;37650;52.790;18.268;2023-02-10T08:00:10;101980.04;;;-0.15;98.61
40171;BME280;37650;52.790;18.268;2023-02-10T08:03:36;101984.52;;;-0.10;99.10
40171;BME280;37650;52.790;18.268;2023-02-10T08:06:57;101995.29;;;-0.08;99.31
40171;BME280;37650;52.790;18.268;2023-02-10T08:10:19;101991.76;;;-0.04;99.21
40171;BME280;37650;52.790;18.268;2023-02-10T08:13:40;101987.11;;;0.01;99.72
40171;BME280;37650;52.790;18.268;2023-02-10T08:17:00;101994.42;;;0.09;99.98
40171;BME280;37650;52.790;18.268;2023-02-10T08:20:22;102007.30;;;0.17;99.95
40171;BME280;37650;52.790;18.268;2023-02-10T08:23:43;102000.20;;;0.22;100.00
40171;BME280;37650;52.790;18.268;2023-02-10T08:27:05;101997.68;;;0.30;100.00
40171;BME280;37650;52.790;18.268;2023-02-10T08:30:26;101998.23;;;0.37;100.00
40171;BME280;37650;52.790;18.268;2023-02-10T08:33:47;102003.89;;;0.47;100.00
40171;BME280;37650;52.790;18.268;2023-02-10T08:37:08;102002.94;;;0.56;100.00
40171;BME280;37650;52.790;18.268;2023-02-10T08:40:29;102014.73;;;0.64;100.00
40171;BME280;37650;52.790;18.268;2023-02-10T08:43:52;102016.09;;;0.68;100.00
40171;BME280;37650;52.790;18.268;2023-02-10T08:47:13;102016.60;;;0.74;100.00
40171;BME280;37650;52.790;18.268;2023-02-10T08:50:35;102021.58;;;0.78;100.00
40171;BME280;37650;52.790;18.268;2023-02-10T08:53:59;102030.83;;;0.82;100.00
40171;BME280;37650;52.790;18.268;2023-02-10T08:57:21;102043.96;;;0.82;100.00
40171;BME280;37650;52.790;18.268;2023-02-10T09:00:42;102041.96;;;0.85;100.00
40171;BME280;37650;52.790;18.268;2023-02-10T09:04:03;102030.77;;;0.92;100.00
40171;BME280;37650;52.790;18.268;2023-02-10T09:07:24;102030.73;;;1.03;100.00
40171;BME280;37650;52.790;18.268;2023-02-10T09:10:46;102023.23;;;1.19;100.00
40171;BME280;37650;52.790;18.268;2023-02-10T09:14:07;102031.30;;;1.30;100.00
40171;BME280;37650;52.790;18.268;2023-02-10T09:17:28;102032.25;;;1.39;100.00
40171;BME280;37650;52.790;18.268;2023-02-10T09:20:49;102038.20;;;1.55;100.00
40171;BME280;37650;52.790;18.268;2023-02-10T09:24:09;102036.52;;;1.64;100.00
40171;BME280;37650;52.790;18.268;2023-02-10T09:27:30;102032.70;;;1.70;100.00
40171;BME280;37650;52.790;18.268;2023-02-10T09:30:52;102030.23;;;1.68;100.00
40171;BME280;37650;52.790;18.268;2023-02-10T09:34:13;102029.73;;;1.69;100.00
40171;BME280;37650;52.790;18.268;2023-02-10T09:37:34;102048.64;;;1.64;100.00
40171;BME280;37650;52.790;18.268;2023-02-10T09:44:33;102053.38;;;1.74;100.00
40171;BME280;37650;52.790;18.268;2023-02-10T09:54:55;102071.98;;;1.71;100.00
40171;BME280;37650;52.790;18.268;2023-02-10T09:58:24;102072.48;;;1.69;100.00
40171;BME280;37650;52.790;18.268;2023-02-10T10:01:54;102070.30;;;1.66;100.00
40171;BME280;37650;52.790;18.268;2023-02-10T10:12:17;102066.61;;;1.97;100.00
40171;BME280;37650;52.790;18.268;2023-02-10T10:15:43;102063.16;;;2.05;100.00
40171;BME280;37650;52.790;18.268;2023-02-10T10:30:48;102055.73;;;1.98;100.00
40171;BME280;37650;52.790;18.268;2023-02-10T10:34:18;102058.24;;;1.95;100.00
40171;BME280;37650;52.790;18.268;2023-02-10T10:37:42;102060.36;;;1.90;100.00
40171;BME280;37650;52.790;18.268;2023-02-10T10:41:07;102063.05;;;1.87;100.00
40171;BME280;37650;52.790;18.268;2023-02-10T10:44:31;102061.02;;;1.81;100.00
40171;BME280;37650;52.790;18.268;2023-02-10T10:47:59;102059.44;;;1.74;100.00
40171;BME280;37650;52.790;18.268;2023-02-10T10:51:22;102048.73;;;1.88;100.00
40171;BME280;37650;52.790;18.268;2023-02-10T10:54:43;102040.73;;;2.00;100.00
40171;BME280;37650;52.790;18.268;2023-02-10T10:58:13;102042.16;;;2.17;100.00
40171;BME280;37650;52.790;18.268;2023-02-10T11:01:44;102037.77;;;2.22;100.00
40171;BME280;37650;52.790;18.268;2023-02-10T11:05:11;102032.44;;;2.24;100.00
40171;BME280;37650;52.790;18.268;2023-02-10T11:08:51;102029.91;;;2.20;100.00
40171;BME280;37650;52.790;18.268;2023-02-10T11:12:23;102035.66;;;2.20;100.00
40171;BME280;37650;52.790;18.268;2023-02-10T11:15:46;102035.60;;;2.33;100.00
40171;BME280;37650;52.790;18.268;2023-02-10T11:19:23;102046.23;;;2.35;100.00
40171;BME280;37650;52.790;18.268;2023-02-10T11:22:44;102048.41;;;2.25;100.00
40171;BME280;37650;52.790;18.268;2023-02-10T11:26:15;102044.05;;;2.17;100.00
40171;BME280;37650;52.790;18.268;2023-02-10T11:29:46;102048.83;;;2.13;100.00
40171;BME280;37650;52.790;18.268;2023-02-10T11:33:20;102057.16;;;2.15;100.00
40171;BME280;37650;52.790;18.268;2023-02-10T11:36:47;102065.55;;;2.10;100.00
40171;BME280;37650;52.790;18.268;2023-02-10T11:40:20;102075.90;;;2.02;100.00
40171;BME280;37650;52.790;18.268;2023-02-10T11:43:44;102078.80;;;2.00;100.00
40171;BME280;37650;52.790;18.268;2023-02-10T11:47:15;102078.04;;;1.98;100.00
40171;BME280;37650;52.790;18.268;2023-02-10T11:50:37;102077.52;;;1.97;100.00
40171;BME280;37650;52.790;18.268;2023-02-10T11:53:58;102079.38;;;1.95;100.00
40171;BME280;37650;52.790;18.268;2023-02-10T12:15:49;102078.80;;;1.80;100.00
40171;BME280;37650;52.790;18.268;2023-02-10T12:23:28;102079.70;;;1.81;100.00
40171;BME280;37650;52.790;18.268;2023-02-10T12:27:17;102090.42;;;1.81;100.00
40171;BME280;37650;52.790;18.268;2023-02-10T12:34:59;102088.21;;;1.89;100.00
40171;BME280;37650;52.790;18.268;2023-02-10T12:38:40;102086.55;;;1.91;100.00
40171;BME280;37650;52.790;18.268;2023-02-10T12:53:44;102082.77;;;1.99;100.00
40171;BME280;37650;52.790;18.268;2023-02-10T13:00:37;102085.30;;;1.97;100.00
40171;BME280;37650;52.790;18.268;2023-02-10T13:07:51;102090.52;;;1.91;100.00
40171;BME280;37650;52.790;18.268;2023-02-10T13:14:52;102093.96;;;1.90;100.00
40171;BME280;37650;52.790;18.268;2023-02-10T13:18:26;102090.79;;;1.95;100.00
40171;BME280;37650;52.790;18.268;2023-02-10T13:22:02;102094.35;;;1.99;100.00
40171;BME280;37650;52.790;18.268;2023-02-10T13:36:40;102110.49;;;2.01;100.00
40171;BME280;37650;52.790;18.268;2023-02-10T13:40:11;102114.99;;;2.01;100.00
40171;BME280;37650;52.790;18.268;2023-02-10T13:43:36;102109.36;;;1.97;100.00
40171;BME280;37650;52.790;18.268;2023-02-10T13:47:24;102098.20;;;1.94;100.00
40171;BME280;37650;52.790;18.268;2023-02-10T13:50:54;102090.08;;;1.94;100.00
40171;BME280;37650;52.790;18.268;2023-02-10T13:54:28;102095.86;;;1.97;100.00
40171;BME280;37650;52.790;18.268;2023-02-10T13:57:55;102103.55;;;2.00;100.00
40171;BME280;37650;52.790;18.268;2023-02-10T14:02:00;102099.28;;;2.02;100.00
40171;BME280;37650;52.790;18.268;2023-02-10T14:05:33;102100.86;;;2.03;100.00
40171;BME280;37650;52.790;18.268;2023-02-10T14:09:02;102106.17;;;2.01;100.00
40171;BME280;37650;52.790;18.268;2023-02-10T14:12:27;102101.97;;;1.99;100.00
40171;BME280;37650;52.790;18.268;2023-02-10T14:16:28;102099.98;;;1.96;100.00
40171;BME280;37650;52.790;18.268;2023-02-10T14:19:51;102105.98;;;1.94;100.00
40171;BME280;37650;52.790;18.268;2023-02-10T14:23:19;102102.81;;;1.91;100.00
40171;BME280;37650;52.790;18.268;2023-02-10T14:26:44;102103.05;;;1.87;100.00
40171;BME280;37650;52.790;18.268;2023-02-10T14:33:57;102102.23;;;1.83;100.00
40171;BME280;37650;52.790;18.268;2023-02-10T14:37:21;102100.02;;;1.84;100.00
40171;BME280;37650;52.790;18.268;2023-02-10T14:40:43;102103.39;;;1.87;100.00
40171;BME280;37650;52.790;18.268;2023-02-10T14:44:05;102102.48;;;1.85;100.00
40171;BME280;37650;52.790;18.268;2023-02-10T14:47:36;102101.38;;;1.83;100.00
40171;BME280;37650;52.790;18.268;2023-02-10T14:51:05;102107.42;;;1.83;100.00
40171;BME280;37650;52.790;18.268;2023-02-10T14:54:28;102114.82;;;1.81;100.00
40171;BME280;37650;52.790;18.268;2023-02-10T14:57:51;102124.86;;;1.81;100.00
40171;BME280;37650;52.790;18.268;2023-02-10T15:01:16;102122.52;;;1.78;100.00
40171;BME280;37650;52.790;18.268;2023-02-10T15:04:43;102133.20;;;1.76;100.00
40171;BME280;37650;52.790;18.268;2023-02-10T15:08:07;102134.23;;;1.75;100.00
40171;BME280;37650;52.790;18.268;2023-02-10T15:11:44;102135.56;;;1.74;100.00
40171;BME280;37650;52.790;18.268;2023-02-10T15:15:34;102131.61;;;1.74;100.00
40171;BME280;37650;52.790;18.268;2023-02-10T15:18:57;102137.33;;;1.75;100.00
40171;BME280;37650;52.790;18.268;2023-02-10T15:22:40;102137.28;;;1.74;100.00
40171;BME280;37650;52.790;18.268;2023-02-10T15:26:15;102143.45;;;1.72;100.00
40171;BME280;37650;52.790;18.268;2023-02-10T15:29:38;102139.29;;;1.71;100.00
40171;BME280;37650;52.790;18.268;2023-02-10T15:33:25;102140.85;;;1.71;100.00
40171;BME280;37650;52.790;18.268;2023-02-10T15:36:50;102137.41;;;1.72;100.00
40171;BME280;37650;52.790;18.268;2023-02-10T15:40:24;102136.98;;;1.69;100.00
40171;BME280;37650;52.790;18.268;2023-02-10T15:43:47;102138.80;;;1.65;100.00
40171;BME280;37650;52.790;18.268;2023-02-10T15:50:37;102137.45;;;1.67;100.00
40171;BME280;37650;52.790;18.268;2023-02-10T15:54:01;102135.14;;;1.71;100.00
40171;BME280;37650;52.790;18.268;2023-02-10T15:57:25;102127.18;;;1.71;100.00
40171;BME280;37650;52.790;18.268;2023-02-10T16:00:47;102132.63;;;1.67;100.00
40171;BME280;37650;52.790;18.268;2023-02-10T16:04:08;102124.09;;;1.65;100.00
40171;BME280;37650;52.790;18.268;2023-02-10T16:07:30;102124.45;;;1.66;100.00
40171;BME280;37650;52.790;18.268;2023-02-10T16:10:52;102133.33;;;1.68;100.00
40171;BME280;37650;52.790;18.268;2023-02-10T16:14:14;102132.16;;;1.69;100.00
40171;BME280;37650;52.790;18.268;2023-02-10T16:17:38;102133.91;;;1.70;100.00
40171;BME280;37650;52.790;18.268;2023-02-10T16:21:00;102141.16;;;1.69;100.00
40171;BME280;37650;52.790;18.268;2023-02-10T16:24:26;102142.14;;;1.68;100.00
40171;BME280;37650;52.790;18.268;2023-02-10T16:27:52;102142.66;;;1.67;100.00
40171;BME280;37650;52.790;18.268;2023-02-10T16:31:16;102143.09;;;1.70;100.00
40171;BME280;37650;52.790;18.268;2023-02-10T16:34:39;102144.48;;;1.72;100.00
40171;BME280;37650;52.790;18.268;2023-02-10T16:38:02;102144.71;;;1.73;100.00
40171;BME280;37650;52.790;18.268;2023-02-10T16:41:25;102145.56;;;1.73;100.00
40171;BME280;37650;52.790;18.268;2023-02-10T16:44:49;102143.80;;;1.71;100.00
40171;BME280;37650;52.790;18.268;2023-02-10T16:48:12;102145.52;;;1.72;100.00
40171;BME280;37650;52.790;18.268;2023-02-10T16:51:36;102149.55;;;1.73;100.00
40171;BME280;37650;52.790;18.268;2023-02-10T16:54:57;102151.87;;;1.75;100.00
40171;BME280;37650;52.790;18.268;2023-02-10T16:58:20;102151.38;;;1.76;100.00
40171;BME280;37650;52.790;18.268;2023-02-10T17:01:42;102150.85;;;1.76;100.00
40171;BME280;37650;52.790;18.268;2023-02-10T17:05:05;102155.30;;;1.74;100.00
40171;BME280;37650;52.790;18.268;2023-02-10T17:08:27;102157.81;;;1.72;100.00
40171;BME280;37650;52.790;18.268;2023-02-10T17:11:51;102158.67;;;1.71;100.00
40171;BME280;37650;52.790;18.268;2023-02-10T17:15:13;102160.73;;;1.70;100.00
40171;BME280;37650;52.790;18.268;2023-02-10T17:18:35;102164.34;;;1.69;100.00
40171;BME280;37650;52.790;18.268;2023-02-10T17:21:58;102159.60;;;1.67;100.00
40171;BME280;37650;52.790;18.268;2023-02-10T17:25:20;102157.47;;;1.65;100.00
40171;BME280;37650;52.790;18.268;2023-02-10T17:28:42;102144.25;;;1.62;100.00
40171;BME280;37650;52.790;18.268;2023-02-10T17:32:04;102143.68;;;1.60;100.00
40171;BME280;37650;52.790;18.268;2023-02-10T17:35:26;102142.90;;;1.57;100.00
40171;BME280;37650;52.790;18.268;2023-02-10T17:38:48;102141.20;;;1.52;100.00
40171;BME280;37650;52.790;18.268;2023-02-10T17:42:11;102138.19;;;1.50;100.00
40171;BME280;37650;52.790;18.268;2023-02-10T17:45:33;102136.41;;;1.48;100.00
40171;BME280;37650;52.790;18.268;2023-02-10T17:48:56;102128.16;;;1.44;100.00
40171;BME280;37650;52.790;18.268;2023-02-10T17:52:20;102121.26;;;1.38;100.00
40171;BME280;37650;52.790;18.268;2023-02-10T17:55:42;102121.21;;;1.36;100.00
40171;BME280;37650;52.790;18.268;2023-02-10T17:59:04;102126.56;;;1.36;100.00
40171;BME280;37650;52.790;18.268;2023-02-10T18:02:26;102127.77;;;1.36;100.00
40171;BME280;37650;52.790;18.268;2023-02-10T18:05:50;102120.41;;;1.33;100.00
40171;BME280;37650;52.790;18.268;2023-02-10T18:09:12;102120.66;;;1.29;100.00
40171;BME280;37650;52.790;18.268;2023-02-10T18:12:37;102121.70;;;1.29;100.00
40171;BME280;37650;52.790;18.268;2023-02-10T18:15:59;102124.05;;;1.32;100.00
40171;BME280;37650;52.790;18.268;2023-02-10T18:19:21;102122.32;;;1.33;100.00
40171;BME280;37650;52.790;18.268;2023-02-10T18:22:46;102119.52;;;1.31;100.00
40171;BME280;37650;52.790;18.268;2023-02-10T18:26:10;102118.20;;;1.34;100.00
40171;BME280;37650;52.790;18.268;2023-02-10T18:29:33;102110.74;;;1.33;100.00
40171;BME280;37650;52.790;18.268;2023-02-10T18:32:55;102104.26;;;1.30;100.00
40171;BME280;37650;52.790;18.268;2023-02-10T18:36:19;102097.30;;;1.28;100.00
40171;BME280;37650;52.790;18.268;2023-02-10T18:39:44;102096.42;;;1.28;100.00
40171;BME280;37650;52.790;18.268;2023-02-10T18:43:06;102099.23;;;1.30;100.00
40171;BME280;37650;52.790;18.268;2023-02-10T18:46:36;102098.02;;;1.29;100.00
40171;BME280;37650;52.790;18.268;2023-02-10T18:49:58;102092.59;;;1.26;100.00
40171;BME280;37650;52.790;18.268;2023-02-10T18:53:21;102090.73;;;1.28;100.00
40171;BME280;37650;52.790;18.268;2023-02-10T18:57:28;102094.45;;;1.32;100.00
40171;BME280;37650;52.790;18.268;2023-02-10T19:00:54;102091.23;;;1.34;100.00
40171;BME280;37650;52.790;18.268;2023-02-10T19:04:17;102098.77;;;1.32;100.00
40171;BME280;37650;52.790;18.268;2023-02-10T19:07:41;102098.63;;;1.32;100.00
40171;BME280;37650;52.790;18.268;2023-02-10T19:11:19;102097.11;;;1.35;100.00
40171;BME280;37650;52.790;18.268;2023-02-10T19:14:42;102091.80;;;1.36;100.00
40171;BME280;37650;52.790;18.268;2023-02-10T19:18:05;102083.65;;;1.35;100.00
40171;BME280;37650;52.790;18.268;2023-02-10T19:21:28;102082.60;;;1.35;100.00
40171;BME280;37650;52.790;18.268;2023-02-10T19:24:52;102088.52;;;1.36;100.00
40171;BME280;37650;52.790;18.268;2023-02-10T19:28:17;102083.42;;;1.39;100.00
40171;BME280;37650;52.790;18.268;2023-02-10T19:31:47;102076.88;;;1.40;100.00
40171;BME280;37650;52.790;18.268;2023-02-10T19:35:12;102070.46;;;1.39;100.00